sensor_id;sensor_type;location;lat;lon;timestamp;temperature;humidity
55777;DHT22;54079;44.540;18.784;2023-11-21T00:00:19;11.30;99.90
55777;DHT22;54079;44.540;18.784;2023-11-21T00:02:46;11.30;99.90
55777;DHT22;54079;44.540;18.784;2023-11-21T00:05:13;11.30;99.90
55777;DHT22;54079;44.540;18.784;2023-11-21T00:07:43;11.10;99.90
55777;DHT22;54079;44.540;18.784;2023-11-21T00:10:10;11.30;99.90
55777;DHT22;54079;44.540;18.784;2023-11-21T00:12:37;11.30;99.90
55777;DHT22;54079;44.540;18.784;2023-11-21T00:15:03;11.30;99.90
55777;DHT22;54079;44.540;18.784;2023-11-21T00:17:35;11.40;99.90
55777;DHT22;54079;44.540;18.784;2023-11-21T00:20:00;11.50;99.90
55777;DHT22;54079;44.540;18.784;2023-11-21T00:22:26;11.40;99.90
55777;DHT22;54079;44.540;18.784;2023-11-21T00:24:52;11.30;99.90
55777;DHT22;54079;44.540;18.784;2023-11-21T00:27:18;11.20;99.90
55777;DHT22;54079;44.540;18.784;2023-11-21T00:29:44;11.20;99.90
55777;DHT22;54079;44.540;18.784;2023-11-21T00:32:10;10.90;99.90
55777;DHT22;54079;44.540;18.784;2023-11-21T00:34:36;11.00;99.90
55777;DHT22;54079;44.540;18.784;2023-11-21T00:37:02;11.10;99.90
55777;DHT22;54079;44.540;18.784;2023-11-21T00:39:28;11.20;99.90
55777;DHT22;54079;44.540;18.784;2023-11-21T00:41:54;11.20;99.90
55777;DHT22;54079;44.540;18.784;2023-11-21T00:44:20;11.10;99.90
55777;DHT22;54079;44.540;18.784;2023-11-21T00:46:46;11.00;99.90
55777;DHT22;54079;44.540;18.784;2023-11-21T00:49:12;11.10;99.90
55777;DHT22;54079;44.540;18.784;2023-11-21T00:51:38;11.10;99.90
55777;DHT22;54079;44.540;18.784;2023-11-21T00:54:05;11.10;99.90
55777;DHT22;54079;44.540;18.784;2023-11-21T00:56:32;11.20;99.90
55777;DHT22;54079;44.540;18.784;2023-11-21T00:58:59;11.10;99.90
55777;DHT22;54079;44.540;18.784;2023-11-21T01:01:25;11.10;99.90
55777;DHT22;54079;44.540;18.784;2023-11-21T01:03:52;11.00;99.90
55777;DHT22;54079;44.540;18.784;2023-11-21T01:06:18;10.80;99.90
55777;DHT22;54079;44.540;18.784;2023-11-21T01:08:45;10.60;99.90
55777;DHT22;54079;44.540;18.784;2023-11-21T01:11:11;10.50;99.90
55777;DHT22;54079;44.540;18.784;2023-11-21T01:13:39;10.50;99.90
55777;DHT22;54079;44.540;18.784;2023-11-21T01:16:05;10.40;99.90
55777;DHT22;54079;44.540;18.784;2023-11-21T01:18:32;10.50;99.90
55777;DHT22;54079;44.540;18.784;2023-11-21T01:20:58;10.60;99.90
55777;DHT22;54079;44.540;18.784;2023-11-21T01:23:26;10.50;99.90
55777;DHT22;54079;44.540;18.784;2023-11-21T01:25:54;10.50;99.90
55777;DHT22;54079;44.540;18.784;2023-11-21T01:28:20;10.60;99.90
55777;DHT22;54079;44.540;18.784;2023-11-21T01:30:46;10.40;99.90
55777;DHT22;54079;44.540;18.784;2023-11-21T01:33:12;10.50;99.90
55777;DHT22;54079;44.540;18.784;2023-11-21T01:35:38;10.60;99.90
55777;DHT22;54079;44.540;18.784;2023-11-21T01:38:04;10.60;99.90
55777;DHT22;54079;44.540;18.784;2023-11-21T01:40:34;10.70;99.90
55777;DHT22;54079;44.540;18.784;2023-11-21T01:43:00;10.70;99.90
55777;DHT22;54079;44.540;18.784;2023-11-21T01:45:29;10.60;99.90
55777;DHT22;54079;44.540;18.784;2023-11-21T01:47:57;10.60;99.90
55777;DHT22;54079;44.540;18.784;2023-11-21T01:50:24;10.80;99.90
55777;DHT22;54079;44.540;18.784;2023-11-21T01:52:51;10.80;99.90
55777;DHT22;54079;44.540;18.784;2023-11-21T01:55:18;11.00;99.90
55777;DHT22;54079;44.540;18.784;2023-11-21T01:57:45;11.10;99.90
55777;DHT22;54079;44.540;18.784;2023-11-21T02:00:12;11.10;99.90
55777;DHT22;54079;44.540;18.784;2023-11-21T02:02:45;11.20;99.90
55777;DHT22;54079;44.540;18.784;2023-11-21T02:05:12;11.10;99.90
55777;DHT22;54079;44.540;18.784;2023-11-21T02:07:47;10.90;99.90
55777;DHT22;54079;44.540;18.784;2023-11-21T02:10:14;11.20;99.90
55777;DHT22;54079;44.540;18.784;2023-11-21T02:12:41;11.30;99.90
55777;DHT22;54079;44.540;18.784;2023-11-21T02:15:15;11.50;99.90
55777;DHT22;54079;44.540;18.784;2023-11-21T02:17:42;11.50;99.90
55777;DHT22;54079;44.540;18.784;2023-11-21T02:20:13;11.40;99.90
55777;DHT22;54079;44.540;18.784;2023-11-21T02:22:48;11.40;99.90
55777;DHT22;54079;44.540;18.784;2023-11-21T02:25:14;11.20;99.90
55777;DHT22;54079;44.540;18.784;2023-11-21T02:27:40;11.20;99.90
55777;DHT22;54079;44.540;18.784;2023-11-21T02:30:07;11.40;99.90
55777;DHT22;54079;44.540;18.784;2023-11-21T02:32:38;11.50;99.90
55777;DHT22;54079;44.540;18.784;2023-11-21T02:35:05;11.50;99.90
55777;DHT22;54079;44.540;18.784;2023-11-21T02:37:33;11.60;99.90
55777;DHT22;54079;44.540;18.784;2023-11-21T02:40:01;11.60;99.90
55777;DHT22;54079;44.540;18.784;2023-11-21T02:42:30;11.40;99.90
55777;DHT22;54079;44.540;18.784;2023-11-21T02:44:56;11.30;99.90
55777;DHT22;54079;44.540;18.784;2023-11-21T02:47:22;11.50;99.90
55777;DHT22;54079;44.540;18.784;2023-11-21T02:49:49;11.60;99.90
55777;DHT22;54079;44.540;18.784;2023-11-21T02:52:15;11.40;99.90
55777;DHT22;54079;44.540;18.784;2023-11-21T02:54:42;11.50;99.90
55777;DHT22;54079;44.540;18.784;2023-11-21T02:57:08;11.50;99.90
55777;DHT22;54079;44.540;18.784;2023-11-21T02:59:34;11.60;99.90
55777;DHT22;54079;44.540;18.784;2023-11-21T03:02:00;11.70;99.90
55777;DHT22;54079;44.540;18.784;2023-11-21T03:04:26;11.80;99.90
55777;DHT22;54079;44.540;18.784;2023-11-21T03:06:52;11.80;99.90
55777;DHT22;54079;44.540;18.784;2023-11-21T03:09:18;11.80;99.90
55777;DHT22;54079;44.540;18.784;2023-11-21T03:11:44;11.70;99.90
55777;DHT22;54079;44.540;18.784;2023-11-21T03:14:10;11.80;99.90
55777;DHT22;54079;44.540;18.784;2023-11-21T03:16:36;12.00;99.90
55777;DHT22;54079;44.540;18.784;2023-11-21T03:19:04;12.00;99.90
55777;DHT22;54079;44.540;18.784;2023-11-21T03:21:30;12.20;99.90
55777;DHT22;54079;44.540;18.784;2023-11-21T03:23:56;12.30;99.90
55777;DHT22;54079;44.540;18.784;2023-11-21T03:26:22;12.30;99.90
55777;DHT22;54079;44.540;18.784;2023-11-21T03:28:48;12.30;99.90
55777;DHT22;54079;44.540;18.784;2023-11-21T03:31:15;12.30;99.90
55777;DHT22;54079;44.540;18.784;2023-11-21T03:33:42;12.20;99.90
55777;DHT22;54079;44.540;18.784;2023-11-21T03:36:09;12.30;99.90
55777;DHT22;54079;44.540;18.784;2023-11-21T03:38:35;12.40;99.90
55777;DHT22;54079;44.540;18.784;2023-11-21T03:41:01;12.40;99.90
55777;DHT22;54079;44.540;18.784;2023-11-21T03:43:28;12.30;99.90
55777;DHT22;54079;44.540;18.784;2023-11-21T03:45:54;12.20;99.90
55777;DHT22;54079;44.540;18.784;2023-11-21T03:48:19;12.30;99.90
55777;DHT22;54079;44.540;18.784;2023-11-21T03:50:45;12.40;99.90
55777;DHT22;54079;44.540;18.784;2023-11-21T03:53:13;12.50;99.90
55777;DHT22;54079;44.540;18.784;2023-11-21T03:55:39;12.50;99.90
55777;DHT22;54079;44.540;18.784;2023-11-21T03:58:05;12.60;99.90
55777;DHT22;54079;44.540;18.784;2023-11-21T04:00:31;12.60;99.90
55777;DHT22;54079;44.540;18.784;2023-11-21T04:02:57;12.70;99.70
55777;DHT22;54079;44.540;18.784;2023-11-21T04:05:23;12.90;99.10
55777;DHT22;54079;44.540;18.784;2023-11-21T04:07:50;13.00;98.90
55777;DHT22;54079;44.540;18.784;2023-11-21T04:10:16;12.90;99.30
55777;DHT22;54079;44.540;18.784;2023-11-21T04:12:42;12.90;99.70
55777;DHT22;54079;44.540;18.784;2023-11-21T04:15:09;12.50;99.90
55777;DHT22;54079;44.540;18.784;2023-11-21T04:17:35;12.50;99.90
55777;DHT22;54079;44.540;18.784;2023-11-21T04:20:03;12.70;99.90
55777;DHT22;54079;44.540;18.784;2023-11-21T04:22:33;12.70;99.90
55777;DHT22;54079;44.540;18.784;2023-11-21T04:24:59;12.90;99.90
55777;DHT22;54079;44.540;18.784;2023-11-21T04:27:25;13.10;99.90
55777;DHT22;54079;44.540;18.784;2023-11-21T04:29:51;13.10;99.90
55777;DHT22;54079;44.540;18.784;2023-11-21T04:32:17;13.00;99.90
55777;DHT22;54079;44.540;18.784;2023-11-21T04:34:43;13.00;99.90
55777;DHT22;54079;44.540;18.784;2023-11-21T04:37:09;13.00;99.90
55777;DHT22;54079;44.540;18.784;2023-11-21T04:39:36;12.90;99.90
55777;DHT22;54079;44.540;18.784;2023-11-21T04:42:02;13.00;99.90
55777;DHT22;54079;44.540;18.784;2023-11-21T04:44:28;12.70;99.90
55777;DHT22;54079;44.540;18.784;2023-11-21T04:46:54;12.80;99.90
55777;DHT22;54079;44.540;18.784;2023-11-21T04:49:20;12.90;99.90
55777;DHT22;54079;44.540;18.784;2023-11-21T04:51:46;13.00;99.90
55777;DHT22;54079;44.540;18.784;2023-11-21T04:54:12;12.80;99.90
55777;DHT22;54079;44.540;18.784;2023-11-21T04:56:37;12.90;99.90
55777;DHT22;54079;44.540;18.784;2023-11-21T04:59:03;12.80;99.90
55777;DHT22;54079;44.540;18.784;2023-11-21T05:01:30;12.80;99.90
55777;DHT22;54079;44.540;18.784;2023-11-21T05:03:56;12.80;99.90
55777;DHT22;54079;44.540;18.784;2023-11-21T05:06:22;12.80;99.90
55777;DHT22;54079;44.540;18.784;2023-11-21T05:08:49;12.90;99.90
55777;DHT22;54079;44.540;18.784;2023-11-21T05:11:25;13.00;99.90
55777;DHT22;54079;44.540;18.784;2023-11-21T05:13:51;13.00;99.90
55777;DHT22;54079;44.540;18.784;2023-11-21T05:16:19;13.00;99.90
55777;DHT22;54079;44.540;18.784;2023-11-21T05:18:45;12.80;99.90
55777;DHT22;54079;44.540;18.784;2023-11-21T05:21:11;12.80;99.90
55777;DHT22;54079;44.540;18.784;2023-11-21T05:23:37;12.80;99.90
55777;DHT22;54079;44.540;18.784;2023-11-21T05:26:03;12.80;99.90
55777;DHT22;54079;44.540;18.784;2023-11-21T05:28:29;12.70;99.90
55777;DHT22;54079;44.540;18.784;2023-11-21T05:30:55;12.80;99.90
55777;DHT22;54079;44.540;18.784;2023-11-21T05:33:21;12.60;99.90
55777;DHT22;54079;44.540;18.784;2023-11-21T05:35:47;12.70;99.90
55777;DHT22;54079;44.540;18.784;2023-11-21T05:38:16;12.80;99.90
55777;DHT22;54079;44.540;18.784;2023-11-21T05:40:42;12.80;99.90
55777;DHT22;54079;44.540;18.784;2023-11-21T05:43:09;12.80;99.90
55777;DHT22;54079;44.540;18.784;2023-11-21T05:45:35;12.80;99.90
55777;DHT22;54079;44.540;18.784;2023-11-21T05:48:01;12.90;99.90
55777;DHT22;54079;44.540;18.784;2023-11-21T05:50:29;13.00;99.90
55777;DHT22;54079;44.540;18.784;2023-11-21T05:52:56;13.20;99.90
55777;DHT22;54079;44.540;18.784;2023-11-21T05:55:25;13.20;99.90
55777;DHT22;54079;44.540;18.784;2023-11-21T05:57:51;13.30;99.90
55777;DHT22;54079;44.540;18.784;2023-11-21T06:00:17;13.30;99.90
55777;DHT22;54079;44.540;18.784;2023-11-21T06:02:50;12.80;99.90
55777;DHT22;54079;44.540;18.784;2023-11-21T06:05:19;12.80;99.90
55777;DHT22;54079;44.540;18.784;2023-11-21T06:07:46;13.10;99.90
55777;DHT22;54079;44.540;18.784;2023-11-21T06:10:12;13.10;99.90
55777;DHT22;54079;44.540;18.784;2023-11-21T06:12:43;13.10;99.90
55777;DHT22;54079;44.540;18.784;2023-11-21T06:15:10;13.10;99.90
55777;DHT22;54079;44.540;18.784;2023-11-21T06:17:40;13.20;99.90
55777;DHT22;54079;44.540;18.784;2023-11-21T06:20:07;13.10;99.90
55777;DHT22;54079;44.540;18.784;2023-11-21T06:22:41;13.10;99.90
55777;DHT22;54079;44.540;18.784;2023-11-21T06:25:08;13.30;99.90
55777;DHT22;54079;44.540;18.784;2023-11-21T06:27:47;13.40;99.90
55777;DHT22;54079;44.540;18.784;2023-11-21T06:30:14;13.50;99.90
55777;DHT22;54079;44.540;18.784;2023-11-21T06:32:41;13.60;99.90
55777;DHT22;54079;44.540;18.784;2023-11-21T06:35:08;13.70;99.80
55777;DHT22;54079;44.540;18.784;2023-11-21T06:37:35;13.80;99.90
55777;DHT22;54079;44.540;18.784;2023-11-21T06:40:01;13.80;99.90
55777;DHT22;54079;44.540;18.784;2023-11-21T06:42:29;13.70;99.90
55777;DHT22;54079;44.540;18.784;2023-11-21T06:44:56;13.60;99.90
55777;DHT22;54079;44.540;18.784;2023-11-21T06:47:23;13.80;99.90
55777;DHT22;54079;44.540;18.784;2023-11-21T06:49:53;13.70;99.90
55777;DHT22;54079;44.540;18.784;2023-11-21T06:52:20;13.60;99.90
55777;DHT22;54079;44.540;18.784;2023-11-21T06:54:48;13.70;99.90
55777;DHT22;54079;44.540;18.784;2023-11-21T06:57:17;13.90;99.90
55777;DHT22;54079;44.540;18.784;2023-11-21T06:59:43;14.10;99.90
55777;DHT22;54079;44.540;18.784;2023-11-21T07:02:09;14.10;99.90
55777;DHT22;54079;44.540;18.784;2023-11-21T07:04:36;14.20;99.90
55777;DHT22;54079;44.540;18.784;2023-11-21T07:07:06;14.30;99.90
55777;DHT22;54079;44.540;18.784;2023-11-21T07:09:32;14.40;99.90
55777;DHT22;54079;44.540;18.784;2023-11-21T07:11:58;14.00;99.90
55777;DHT22;54079;44.540;18.784;2023-11-21T07:14:25;14.30;99.90
55777;DHT22;54079;44.540;18.784;2023-11-21T07:16:51;14.30;99.90
55777;DHT22;54079;44.540;18.784;2023-11-21T07:19:18;14.40;99.90
55777;DHT22;54079;44.540;18.784;2023-11-21T07:21:45;14.50;99.90
55777;DHT22;54079;44.540;18.784;2023-11-21T07:24:11;14.50;99.90
55777;DHT22;54079;44.540;18.784;2023-11-21T07:26:37;14.60;99.90
55777;DHT22;54079;44.540;18.784;2023-11-21T07:29:03;14.50;99.90
55777;DHT22;54079;44.540;18.784;2023-11-21T07:31:30;14.60;99.90
55777;DHT22;54079;44.540;18.784;2023-11-21T07:33:57;14.70;99.90
55777;DHT22;54079;44.540;18.784;2023-11-21T07:36:23;14.90;99.90
55777;DHT22;54079;44.540;18.784;2023-11-21T07:38:50;15.00;99.90
55777;DHT22;54079;44.540;18.784;2023-11-21T07:41:16;15.20;99.90
55777;DHT22;54079;44.540;18.784;2023-11-21T07:43:46;15.20;99.90
55777;DHT22;54079;44.540;18.784;2023-11-21T07:46:12;15.10;99.90
55777;DHT22;54079;44.540;18.784;2023-11-21T07:48:42;15.20;99.90
55777;DHT22;54079;44.540;18.784;2023-11-21T07:51:08;15.30;99.90
55777;DHT22;54079;44.540;18.784;2023-11-21T07:53:36;15.40;99.90
55777;DHT22;54079;44.540;18.784;2023-11-21T07:56:06;15.60;99.90
55777;DHT22;54079;44.540;18.784;2023-11-21T07:58:33;15.60;99.90
55777;DHT22;54079;44.540;18.784;2023-11-21T08:01:00;15.60;99.90
55777;DHT22;54079;44.540;18.784;2023-11-21T08:03:26;15.50;99.90
55777;DHT22;54079;44.540;18.784;2023-11-21T08:05:52;15.50;99.90
55777;DHT22;54079;44.540;18.784;2023-11-21T08:08:18;15.50;99.90
55777;DHT22;54079;44.540;18.784;2023-11-21T08:10:47;15.60;99.90
55777;DHT22;54079;44.540;18.784;2023-11-21T08:13:29;15.60;99.90
55777;DHT22;54079;44.540;18.784;2023-11-21T08:15:57;15.50;99.90
55777;DHT22;54079;44.540;18.784;2023-11-21T08:18:30;15.40;99.90
55777;DHT22;54079;44.540;18.784;2023-11-21T08:20:56;15.50;99.90
55777;DHT22;54079;44.540;18.784;2023-11-21T08:23:23;15.30;99.90
55777;DHT22;54079;44.540;18.784;2023-11-21T08:25:54;15.30;99.90
55777;DHT22;54079;44.540;18.784;2023-11-21T08:28:21;15.30;99.90
55777;DHT22;54079;44.540;18.784;2023-11-21T08:30:52;15.00;99.90
55777;DHT22;54079;44.540;18.784;2023-11-21T08:33:18;15.00;99.90
55777;DHT22;54079;44.540;18.784;2023-11-21T08:35:44;15.10;99.90
55777;DHT22;54079;44.540;18.784;2023-11-21T08:38:12;15.20;99.90
55777;DHT22;54079;44.540;18.784;2023-11-21T08:40:38;15.20;99.90
55777;DHT22;54079;44.540;18.784;2023-11-21T08:43:04;15.20;99.90
55777;DHT22;54079;44.540;18.784;2023-11-21T08:45:31;15.30;99.90
55777;DHT22;54079;44.540;18.784;2023-11-21T08:48:02;15.30;99.90
55777;DHT22;54079;44.540;18.784;2023-11-21T08:50:28;15.30;99.90
55777;DHT22;54079;44.540;18.784;2023-11-21T08:52:54;15.20;99.90
55777;DHT22;54079;44.540;18.784;2023-11-21T08:55:21;15.30;99.90
55777;DHT22;54079;44.540;18.784;2023-11-21T08:57:47;15.30;99.90
55777;DHT22;54079;44.540;18.784;2023-11-21T09:00:14;15.30;99.90
55777;DHT22;54079;44.540;18.784;2023-11-21T09:02:43;15.30;99.90
55777;DHT22;54079;44.540;18.784;2023-11-21T09:05:13;15.40;99.90
55777;DHT22;54079;44.540;18.784;2023-11-21T09:07:40;15.40;99.90
55777;DHT22;54079;44.540;18.784;2023-11-21T09:10:07;15.20;99.90
55777;DHT22;54079;44.540;18.784;2023-11-21T09:12:35;15.00;99.90
55777;DHT22;54079;44.540;18.784;2023-11-21T09:15:06;15.00;99.90
55777;DHT22;54079;44.540;18.784;2023-11-21T09:17:33;15.10;99.90
55777;DHT22;54079;44.540;18.784;2023-11-21T09:20:02;15.10;99.90
55777;DHT22;54079;44.540;18.784;2023-11-21T09:22:32;14.90;99.90
55777;DHT22;54079;44.540;18.784;2023-11-21T09:24:58;14.70;99.90
55777;DHT22;54079;44.540;18.784;2023-11-21T09:27:24;14.60;99.90
55777;DHT22;54079;44.540;18.784;2023-11-21T09:29:51;14.40;99.90
55777;DHT22;54079;44.540;18.784;2023-11-21T09:32:18;14.40;99.90
55777;DHT22;54079;44.540;18.784;2023-11-21T09:34:44;14.10;99.90
55777;DHT22;54079;44.540;18.784;2023-11-21T09:37:10;13.90;99.90
55777;DHT22;54079;44.540;18.784;2023-11-21T09:39:36;14.10;99.90
55777;DHT22;54079;44.540;18.784;2023-11-21T09:44:36;14.40;99.90
55777;DHT22;54079;44.540;18.784;2023-11-21T09:47:09;14.50;99.90
55777;DHT22;54079;44.540;18.784;2023-11-21T09:49:37;14.40;99.90
55777;DHT22;54079;44.540;18.784;2023-11-21T09:52:04;14.50;99.90
55777;DHT22;54079;44.540;18.784;2023-11-21T09:54:32;14.50;99.90
55777;DHT22;54079;44.540;18.784;2023-11-21T09:56:59;14.40;99.90
55777;DHT22;54079;44.540;18.784;2023-11-21T09:59:30;14.50;99.90
55777;DHT22;54079;44.540;18.784;2023-11-21T10:01:59;14.40;99.90
55777;DHT22;54079;44.540;18.784;2023-11-21T10:04:27;14.50;99.90
55777;DHT22;54079;44.540;18.784;2023-11-21T10:06:54;14.60;99.90
55777;DHT22;54079;44.540;18.784;2023-11-21T10:09:21;14.50;99.90
55777;DHT22;54079;44.540;18.784;2023-11-21T10:11:49;14.50;99.90
55777;DHT22;54079;44.540;18.784;2023-11-21T10:14:19;14.20;99.90
55777;DHT22;54079;44.540;18.784;2023-11-21T10:16:49;13.80;99.90
55777;DHT22;54079;44.540;18.784;2023-11-21T10:19:15;13.60;99.90
55777;DHT22;54079;44.540;18.784;2023-11-21T10:21:42;13.40;99.90
55777;DHT22;54079;44.540;18.784;2023-11-21T10:24:08;13.10;99.90
55777;DHT22;54079;44.540;18.784;2023-11-21T10:26:34;12.90;99.90
55777;DHT22;54079;44.540;18.784;2023-11-21T10:29:02;12.90;99.90
55777;DHT22;54079;44.540;18.784;2023-11-21T10:31:32;12.60;99.90
55777;DHT22;54079;44.540;18.784;2023-11-21T10:34:18;12.60;99.90
55777;DHT22;54079;44.540;18.784;2023-11-21T10:36:44;12.60;99.90
55777;DHT22;54079;44.540;18.784;2023-11-21T10:39:14;12.50;99.90
55777;DHT22;54079;44.540;18.784;2023-11-21T10:41:44;12.40;99.90
55777;DHT22;54079;44.540;18.784;2023-11-21T10:44:13;12.20;99.90
55777;DHT22;54079;44.540;18.784;2023-11-21T10:46:40;12.40;99.90
55777;DHT22;54079;44.540;18.784;2023-11-21T10:49:08;12.30;99.90
55777;DHT22;54079;44.540;18.784;2023-11-21T10:51:35;12.40;99.90
55777;DHT22;54079;44.540;18.784;2023-11-21T10:54:01;12.20;99.90
55777;DHT22;54079;44.540;18.784;2023-11-21T10:56:27;12.10;99.90
55777;DHT22;54079;44.540;18.784;2023-11-21T10:58:56;12.10;99.90
55777;DHT22;54079;44.540;18.784;2023-11-21T11:01:24;12.10;99.90
55777;DHT22;54079;44.540;18.784;2023-11-21T11:03:55;11.80;99.90
55777;DHT22;54079;44.540;18.784;2023-11-21T11:06:21;11.50;99.90
55777;DHT22;54079;44.540;18.784;2023-11-21T11:08:51;11.40;99.90
55777;DHT22;54079;44.540;18.784;2023-11-21T11:11:17;11.30;99.90
55777;DHT22;54079;44.540;18.784;2023-11-21T11:13:44;11.30;99.90
55777;DHT22;54079;44.540;18.784;2023-11-21T11:16:12;11.50;99.90
55777;DHT22;54079;44.540;18.784;2023-11-21T11:18:42;11.70;99.90
55777;DHT22;54079;44.540;18.784;2023-11-21T11:27:23;11.70;99.90
55777;DHT22;54079;44.540;18.784;2023-11-21T11:35:28;11.30;99.90
55777;DHT22;54079;44.540;18.784;2023-11-21T11:37:56;11.20;99.90
55777;DHT22;54079;44.540;18.784;2023-11-21T11:40:38;11.20;99.90
55777;DHT22;54079;44.540;18.784;2023-11-21T11:43:05;11.40;99.90
55777;DHT22;54079;44.540;18.784;2023-11-21T11:45:33;11.50;99.90
55777;DHT22;54079;44.540;18.784;2023-11-21T11:48:01;11.40;99.90
55777;DHT22;54079;44.540;18.784;2023-11-21T11:50:29;11.20;99.90
55777;DHT22;54079;44.540;18.784;2023-11-21T11:53:11;11.30;99.90
55777;DHT22;54079;44.540;18.784;2023-11-21T11:55:37;11.50;99.90
55777;DHT22;54079;44.540;18.784;2023-11-21T11:58:06;11.20;99.90
55777;DHT22;54079;44.540;18.784;2023-11-21T12:03:02;11.40;99.90
55777;DHT22;54079;44.540;18.784;2023-11-21T12:05:35;11.50;99.90
55777;DHT22;54079;44.540;18.784;2023-11-21T12:08:05;11.60;99.90
55777;DHT22;54079;44.540;18.784;2023-11-21T12:10:34;11.60;99.90
55777;DHT22;54079;44.540;18.784;2023-11-21T12:13:02;11.50;99.90
55777;DHT22;54079;44.540;18.784;2023-11-21T12:15:33;11.70;99.90
55777;DHT22;54079;44.540;18.784;2023-11-21T12:17:59;11.60;99.90
55777;DHT22;54079;44.540;18.784;2023-11-21T12:20:26;11.80;99.90
55777;DHT22;54079;44.540;18.784;2023-11-21T12:22:57;11.90;99.90
55777;DHT22;54079;44.540;18.784;2023-11-21T12:25:28;12.00;99.90
55777;DHT22;54079;44.540;18.784;2023-11-21T12:27:55;11.80;99.90
55777;DHT22;54079;44.540;18.784;2023-11-21T12:30:24;11.90;99.90
55777;DHT22;54079;44.540;18.784;2023-11-21T12:32:54;11.80;99.90
55777;DHT22;54079;44.540;18.784;2023-11-21T12:35:34;11.90;99.90
55777;DHT22;54079;44.540;18.784;2023-11-21T12:38:01;11.70;99.90
55777;DHT22;54079;44.540;18.784;2023-11-21T12:40:30;11.60;99.90
55777;DHT22;54079;44.540;18.784;2023-11-21T12:42:58;11.90;99.90
55777;DHT22;54079;44.540;18.784;2023-11-21T12:45:26;12.00;99.90
55777;DHT22;54079;44.540;18.784;2023-11-21T12:48:02;11.90;99.90
55777;DHT22;54079;44.540;18.784;2023-11-21T12:50:35;11.90;99.90
55777;DHT22;54079;44.540;18.784;2023-11-21T12:53:12;11.80;99.90
55777;DHT22;54079;44.540;18.784;2023-11-21T12:55:38;11.90;99.90
55777;DHT22;54079;44.540;18.784;2023-11-21T12:58:07;11.90;99.90
55777;DHT22;54079;44.540;18.784;2023-11-21T13:00:47;11.90;99.90
55777;DHT22;54079;44.540;18.784;2023-11-21T13:03:15;11.80;99.90
55777;DHT22;54079;44.540;18.784;2023-11-21T13:05:44;11.80;99.90
55777;DHT22;54079;44.540;18.784;2023-11-21T13:08:12;11.80;99.90
55777;DHT22;54079;44.540;18.784;2023-11-21T13:10:43;12.10;99.90
55777;DHT22;54079;44.540;18.784;2023-11-21T13:13:13;12.20;99.90
55777;DHT22;54079;44.540;18.784;2023-11-21T13:16:08;12.20;99.90
55777;DHT22;54079;44.540;18.784;2023-11-21T13:18:35;12.00;99.90
55777;DHT22;54079;44.540;18.784;2023-11-21T13:21:03;11.90;99.90
55777;DHT22;54079;44.540;18.784;2023-11-21T13:23:36;11.90;99.90
55777;DHT22;54079;44.540;18.784;2023-11-21T13:26:03;11.90;99.90
55777;DHT22;54079;44.540;18.784;2023-11-21T13:28:33;11.80;99.90
55777;DHT22;54079;44.540;18.784;2023-11-21T13:31:00;11.80;99.90
55777;DHT22;54079;44.540;18.784;2023-11-21T13:33:49;11.80;99.90
55777;DHT22;54079;44.540;18.784;2023-11-21T13:36:22;11.70;99.90
55777;DHT22;54079;44.540;18.784;2023-11-21T13:38:52;11.40;99.90
55777;DHT22;54079;44.540;18.784;2023-11-21T13:41:21;11.40;99.90
55777;DHT22;54079;44.540;18.784;2023-11-21T13:43:53;11.70;99.90
55777;DHT22;54079;44.540;18.784;2023-11-21T13:46:29;11.90;99.90
55777;DHT22;54079;44.540;18.784;2023-11-21T13:49:00;12.00;99.90
55777;DHT22;54079;44.540;18.784;2023-11-21T13:51:26;12.10;99.90
55777;DHT22;54079;44.540;18.784;2023-11-21T13:54:06;12.10;99.90
55777;DHT22;54079;44.540;18.784;2023-11-21T13:56:35;12.30;99.90
55777;DHT22;54079;44.540;18.784;2023-11-21T13:59:01;12.30;99.90
55777;DHT22;54079;44.540;18.784;2023-11-21T14:01:36;12.40;99.90
55777;DHT22;54079;44.540;18.784;2023-11-21T14:04:21;12.50;99.90
55777;DHT22;54079;44.540;18.784;2023-11-21T14:07:01;12.50;99.90
55777;DHT22;54079;44.540;18.784;2023-11-21T14:09:44;12.60;99.90
55777;DHT22;54079;44.540;18.784;2023-11-21T14:12:10;12.60;99.90
55777;DHT22;54079;44.540;18.784;2023-11-21T14:14:38;12.50;99.90
55777;DHT22;54079;44.540;18.784;2023-11-21T14:17:07;12.60;99.90
55777;DHT22;54079;44.540;18.784;2023-11-21T14:19:34;12.50;99.90
55777;DHT22;54079;44.540;18.784;2023-11-21T14:22:04;12.50;99.90
55777;DHT22;54079;44.540;18.784;2023-11-21T14:24:30;12.50;99.90
55777;DHT22;54079;44.540;18.784;2023-11-21T14:26:57;12.50;99.90
55777;DHT22;54079;44.540;18.784;2023-11-21T14:29:23;12.40;99.90
55777;DHT22;54079;44.540;18.784;2023-11-21T14:31:50;12.50;99.90
55777;DHT22;54079;44.540;18.784;2023-11-21T14:34:17;12.50;99.90
55777;DHT22;54079;44.540;18.784;2023-11-21T14:36:43;12.60;99.90
55777;DHT22;54079;44.540;18.784;2023-11-21T14:39:10;12.10;99.90
55777;DHT22;54079;44.540;18.784;2023-11-21T14:41:49;11.90;99.90
55777;DHT22;54079;44.540;18.784;2023-11-21T14:44:16;12.10;99.90
55777;DHT22;54079;44.540;18.784;2023-11-21T14:46:42;12.20;99.90
55777;DHT22;54079;44.540;18.784;2023-11-21T14:49:16;12.20;99.90
55777;DHT22;54079;44.540;18.784;2023-11-21T14:51:47;12.30;99.90
55777;DHT22;54079;44.540;18.784;2023-11-21T14:54:39;12.40;99.90
55777;DHT22;54079;44.540;18.784;2023-11-21T14:57:14;12.30;99.90
55777;DHT22;54079;44.540;18.784;2023-11-21T14:59:48;12.30;99.90
55777;DHT22;54079;44.540;18.784;2023-11-21T15:02:18;12.30;99.90
55777;DHT22;54079;44.540;18.784;2023-11-21T15:05:04;12.30;99.90
55777;DHT22;54079;44.540;18.784;2023-11-21T15:07:32;12.20;99.90
55777;DHT22;54079;44.540;18.784;2023-11-21T15:09:57;12.20;99.90
55777;DHT22;54079;44.540;18.784;2023-11-21T15:12:23;12.20;99.90
55777;DHT22;54079;44.540;18.784;2023-11-21T15:14:52;12.30;99.90
55777;DHT22;54079;44.540;18.784;2023-11-21T15:17:20;12.30;99.90
55777;DHT22;54079;44.540;18.784;2023-11-21T15:19:53;12.30;99.90
55777;DHT22;54079;44.540;18.784;2023-11-21T15:22:19;12.40;99.90
55777;DHT22;54079;44.540;18.784;2023-11-21T15:24:46;12.40;99.90
55777;DHT22;54079;44.540;18.784;2023-11-21T15:27:15;12.30;99.90
55777;DHT22;54079;44.540;18.784;2023-11-21T15:29:42;12.30;99.90
55777;DHT22;54079;44.540;18.784;2023-11-21T15:32:09;12.30;99.90
55777;DHT22;54079;44.540;18.784;2023-11-21T15:34:37;12.30;99.90
55777;DHT22;54079;44.540;18.784;2023-11-21T15:37:04;12.20;99.90